Terminal Aerodrome Forecast
Issued by NWS Charleston, WV

Home | Current Version | Previous Version | Text Only | Print | Product List | Glossary On
Versions: 1 2 3 4 5 6 7 8 9 10 11 12 13 14 15 16 17 18 19 20 21 22 23 24 25 26 27 28 29
000
FTUS41 KRLX 030100 AAA
TAFBKW
TAF AMD
KBKW 030106Z 0301/0324 18005KT 3SM SHRA SCT005 BKN025
      TEMPO 0301/0302 1SM +TSRA BR BKN005CB
     FM030200 18005KT 4SM -RA SCT005 BKN030
      TEMPO 0302/0303 2SM SHRA BR BKN005
     FM030300 25004KT P6SM BKN045
     FM030600 VRB03KT P6SM BKN030
     FM031100 00000KT P6SM BKN018
     FM031600 31004KT P6SM BKN020
     FM032000 30005KT P6SM SCT035
     FM032200 29005KT P6SM SKC=

USA.gov is the U.S. government's official web portal to all federal, state and local government web resources and services.